Wetterdaten: Oktober 2015
Datum Temp Feuchte Luftdruck Regen Wind Richtung Sonnenschein UV Solar Windben
01.10.2015 7,9 C 78 % 1030,6 hPa 0,0 l/m 1,0 km/h NO 8,67 h 2,0 UV-I 331 W/m 4,4 km/h
02.10.2015 10,8 C 73 % 1023,4 hPa 0,0 l/m 0,6 km/h NO 8,75 h 1,9 UV-I 331 W/m 2,8 km/h
03.10.2015 12,1 C 82 % 1014,0 hPa 0,0 l/m 0,0 km/h SO 8,58 h 1,7 UV-I 304 W/m 0,0 km/h
04.10.2015 10,3 C 91 % 1015,8 hPa 0,0 l/m 0,0 km/h W-SW 4,08 h 1,2 UV-I 184 W/m 0,0 km/h
05.10.2015 13,1 C 85 % 1012,1 hPa 0,2 l/m 8,9 km/h SO 5,92 h 1,5 UV-I 236 W/m 20,9 km/h
06.10.2015 14,8 C 93 % 1004,3 hPa 3,0 l/m 9,7 km/h SO 1,17 h 1,2 UV-I 135 W/m 22,9 km/h
07.10.2015 14,0 C 93 % 1011,3 hPa 1,2 l/m 0,0 km/h S 1,42 h 1,2 UV-I 152 W/m 0,0 km/h
08.10.2015 11,9 C 96 % 1018,8 hPa 3,8 l/m 0,5 km/h NW 0,00 h 0,6 UV-I 55 W/m 7,6 km/h
09.10.2015 11,0 C 97 % 1020,7 hPa 4,4 l/m 2,1 km/h N-NO 0,17 h 0,7 UV-I 74 W/m 10,1 km/h
10.10.2015 7,6 C 85 % 1019,9 hPa 0,2 l/m 0,2 km/h N-NO 5,83 h 1,4 UV-I 232 W/m 2,4 km/h
11.10.2015 4,7 C 72 % 1019,3 hPa 0,0 l/m 2,5 km/h O-NO 8,17 h 1,5 UV-I 286 W/m 13,3 km/h
12.10.2015 4,0 C 76 % 1019,1 hPa 0,0 l/m 0,4 km/h O 7,58 h 1,4 UV-I 254 W/m 2,8 km/h
13.10.2015 2,2 C 87 % 1018,5 hPa 0,0 l/m 1,3 km/h NO 0,00 h 0,6 UV-I 61 W/m 8,1 km/h
14.10.2015 1,8 C 96 % 1018,8 hPa 7,4 l/m 0,0 km/h N 0,00 h 0,7 UV-I 43 W/m 0,0 km/h
15.10.2015 4,8 C 97 % 1015,7 hPa 7,4 l/m 0,8 km/h N 0,00 h 0,7 UV-I 42 W/m 4,0 km/h
16.10.2015 5,8 C 96 % 1017,1 hPa 0,4 l/m 0,5 km/h W-NW 0,00 h 0,6 UV-I 49 W/m 4,0 km/h
17.10.2015 6,2 C 94 % 1018,1 hPa 1,4 l/m 0,0 km/h S 0,92 h 0,9 UV-I 90 W/m 0,0 km/h
18.10.2015 5,7 C 92 % 1018,9 hPa 0,0 l/m 0,0 km/h S 0,75 h 0,9 UV-I 127 W/m 0,0 km/h
19.10.2015 6,9 C 97 % 1021,1 hPa 0,6 l/m 0,0 km/h N-NW 0,00 h 0,5 UV-I 30 W/m 0,0 km/h
20.10.2015 7,5 C 94 % 1021,9 hPa 0,0 l/m 0,0 km/h N-NW 0,75 h 0,9 UV-I 104 W/m 0,0 km/h
21.10.2015 8,1 C 91 % 1018,2 hPa 0,4 l/m 0,0 km/h S 1,00 h 0,9 UV-I 131 W/m 0,0 km/h
22.10.2015 9,7 C 97 % 1014,9 hPa 5,6 l/m 0,6 km/h S 0,00 h 0,6 UV-I 47 W/m 6,4 km/h
23.10.2015 6,8 C 91 % 1023,0 hPa 0,0 l/m 0,0 km/h S-SW 4,75 h 1,1 UV-I 199 W/m 0,0 km/h
24.10.2015 6,7 C 94 % 1017,8 hPa 0,2 l/m 3,0 km/h S 0,58 h 0,9 UV-I 90 W/m 5,6 km/h
25.10.2015 8,6 C 95 % 1024,5 hPa 1,0 l/m 0,3 km/h S-SW 0,17 h 0,7 UV-I 71 W/m 2,4 km/h
26.10.2015 8,9 C 93 % 1020,9 hPa 0,0 l/m 1,8 km/h SO 2,92 h 0,9 UV-I 146 W/m 7,2 km/h
27.10.2015 9,0 C 92 % 1015,8 hPa 0,2 l/m 3,8 km/h S-SO 5,83 h 1,1 UV-I 206 W/m 9,6 km/h
28.10.2015 8,3 C 93 % 1011,3 hPa 0,0 l/m 2,2 km/h S-SO 2,00 h 0,9 UV-I 125 W/m 8,4 km/h
29.10.2015 8,6 C 95 % 1020,1 hPa 0,0 l/m 0,0 km/h W 0,00 h 0,6 UV-I 42 W/m 0,0 km/h
30.10.2015 8,7 C 92 % 1027,5 hPa 0,2 l/m 0,6 km/h SO 2,00 h 1,0 UV-I 137 W/m 2,8 km/h
31.10.2015 8,8 C 88 % 1027,2 hPa 0,0 l/m 4,3 km/h SO 4,92 h 1,2 UV-I 192 W/m 8,9 km/h
Min-Datum 12.10.15 02.10.15 06.10.15 17 Tage 01.10.15 - - - - 01.10.15
Min-Zeit 06:45 16:35 10:20 - 00:00 - - - - 00:00
Minimum -0,2 C 45 % 1003,5 hPa - 0,0 km/h - - - - 0,0 km/h
Max-Datum 03.10.15 09.10.15 01.10.15 14.10.15 05.10.15 - 02.10.15 01.10.15 17.10.15 05.10.15
Max-Zeit 14:40 11:10 00:05 11:00 11:30 - 17:30 13:00 12:35 11:30
Maximum 20,5 C 100 % 1033,5 hPa 7,4 l/m 26,4 km/h
SO
- 8,67 h 3,2 UV-I 740 W/m 41,8 km/h
SO
Durchschnitt 8,2 C 90 % 1018,7 hPa #37,6 l/m 1,5 km/h SO #86:55 h 1,0 UV-I 145 W/m 5,0 km/h

Durchschnitt Minimum Temp.5,3 C
Durchschnitt Maximum Temp.11,9 C